Terminal Aerodrome Forecast
Issued by NWS Atlanta, GA

Home | Current Version | Previous Version | Text Only | Print | Product List | Glossary On
Versions: 1 2 3 4 5 6 7 8 9 10 11 12 13 14 15 16 17 18 19 20 21 22 23 24
000
FTUS42 KFFC 171700 RRA
TAFMCN
TAF
KMCN 171744Z 1718/1818 08012KT P6SM BKN035
     FM180900 05007KT P6SM BKN029
     FM181100 05008KT P6SM BKN019
     FM181200 05009KT 6SM SHRA OVC017
     FM181500 06012KT 6SM SHRA OVC012=

USA.gov is the U.S. government's official web portal to all federal, state and local government web resources and services.